sensor_id;sensor_type;location;lat;lon;timestamp;pressure;altitude;pressure_sealevel;temperature;humidity
56074;BME280;41950;55.840;37.442;2023-03-18T00:00:22;101316.41;;;-1.88;46.69
56074;BME280;41950;55.840;37.442;2023-03-18T00:02:48;101312.19;;;-1.88;46.96
56074;BME280;41950;55.840;37.442;2023-03-18T00:05:14;101311.63;;;-1.97;47.02
56074;BME280;41950;55.840;37.442;2023-03-18T00:07:40;101329.31;;;-1.85;47.22
56074;BME280;41950;55.840;37.442;2023-03-18T00:10:09;101326.59;;;-1.88;47.35
56074;BME280;41950;55.840;37.442;2023-03-18T00:12:37;101319.00;;;-2.01;47.46
56074;BME280;41950;55.840;37.442;2023-03-18T00:15:06;101316.00;;;-2.09;47.67
56074;BME280;41950;55.840;37.442;2023-03-18T00:17:33;101332.25;;;-1.92;47.52
56074;BME280;41950;55.840;37.442;2023-03-18T00:20:03;101289.53;;;-2.12;47.78
56074;BME280;41950;55.840;37.442;2023-03-18T00:22:35;101309.44;;;-2.05;47.66
56074;BME280;41950;55.840;37.442;2023-03-18T00:25:03;101324.34;;;-1.97;47.64
56074;BME280;41950;55.840;37.442;2023-03-18T00:27:30;101286.94;;;-2.27;47.58
56074;BME280;41950;55.840;37.442;2023-03-18T00:29:55;101334.44;;;-1.98;47.81
56074;BME280;41950;55.840;37.442;2023-03-18T00:32:24;101342.06;;;-1.98;47.77
56074;BME280;41950;55.840;37.442;2023-03-18T00:34:50;101320.22;;;-2.09;47.73
56074;BME280;41950;55.840;37.442;2023-03-18T00:37:17;101341.38;;;-1.96;47.60
56074;BME280;41950;55.840;37.442;2023-03-18T00:39:57;101314.16;;;-2.11;47.68
56074;BME280;41950;55.840;37.442;2023-03-18T00:42:23;101317.75;;;-2.08;47.74
56074;BME280;41950;55.840;37.442;2023-03-18T00:44:50;101339.25;;;-2.03;47.82
56074;BME280;41950;55.840;37.442;2023-03-18T00:47:15;101308.16;;;-2.27;48.12
56074;BME280;41950;55.840;37.442;2023-03-18T00:49:41;101342.59;;;-2.04;48.19
56074;BME280;41950;55.840;37.442;2023-03-18T00:52:07;101326.44;;;-2.19;48.11
56074;BME280;41950;55.840;37.442;2023-03-18T00:54:35;101346.91;;;-2.03;48.00
56074;BME280;41950;55.840;37.442;2023-03-18T00:57:02;101349.44;;;-2.03;48.40
56074;BME280;41950;55.840;37.442;2023-03-18T00:59:29;101334.50;;;-2.11;48.19
56074;BME280;41950;55.840;37.442;2023-03-18T01:01:55;101338.63;;;-2.13;48.44
56074;BME280;41950;55.840;37.442;2023-03-18T01:04:21;101348.72;;;-2.15;48.55
56074;BME280;41950;55.840;37.442;2023-03-18T01:06:47;101354.88;;;-2.11;48.81
56074;BME280;41950;55.840;37.442;2023-03-18T01:09:13;101360.84;;;-2.11;48.87
56074;BME280;41950;55.840;37.442;2023-03-18T01:11:41;101353.09;;;-2.12;48.85
56074;BME280;41950;55.840;37.442;2023-03-18T01:14:09;101364.25;;;-2.10;48.87
56074;BME280;41950;55.840;37.442;2023-03-18T01:16:35;101358.19;;;-2.12;49.11
56074;BME280;41950;55.840;37.442;2023-03-18T01:19:00;101354.50;;;-2.17;49.11
56074;BME280;41950;55.840;37.442;2023-03-18T01:21:26;101343.94;;;-2.24;49.48
56074;BME280;41950;55.840;37.442;2023-03-18T01:23:53;101362.78;;;-2.20;49.56
56074;BME280;41950;55.840;37.442;2023-03-18T01:26:19;101368.66;;;-2.21;49.64
56074;BME280;41950;55.840;37.442;2023-03-18T01:28:45;101363.41;;;-2.24;49.74
56074;BME280;41950;55.840;37.442;2023-03-18T01:31:12;101363.03;;;-2.30;49.77
56074;BME280;41950;55.840;37.442;2023-03-18T01:33:38;101362.47;;;-2.39;49.87
56074;BME280;41950;55.840;37.442;2023-03-18T01:36:04;101370.16;;;-2.25;49.92
56074;BME280;41950;55.840;37.442;2023-03-18T01:38:30;101376.53;;;-2.31;49.97
56074;BME280;41950;55.840;37.442;2023-03-18T01:40:58;101386.97;;;-2.27;50.06
56074;BME280;41950;55.840;37.442;2023-03-18T01:43:31;101374.59;;;-2.35;50.11
56074;BME280;41950;55.840;37.442;2023-03-18T01:46:00;101380.94;;;-2.29;50.60
56074;BME280;41950;55.840;37.442;2023-03-18T01:48:30;101369.22;;;-2.40;50.11
56074;BME280;41950;55.840;37.442;2023-03-18T01:51:06;101394.34;;;-2.31;50.34
56074;BME280;41950;55.840;37.442;2023-03-18T01:53:39;101395.03;;;-2.34;50.36
56074;BME280;41950;55.840;37.442;2023-03-18T01:56:07;101375.81;;;-2.43;50.36
56074;BME280;41950;55.840;37.442;2023-03-18T01:58:37;101375.88;;;-2.42;50.37
56074;BME280;41950;55.840;37.442;2023-03-18T02:01:08;101396.69;;;-2.34;50.52
56074;BME280;41950;55.840;37.442;2023-03-18T02:03:39;101402.28;;;-2.40;50.62
56074;BME280;41950;55.840;37.442;2023-03-18T02:06:05;101382.94;;;-2.51;50.79
56074;BME280;41950;55.840;37.442;2023-03-18T02:08:31;101380.41;;;-2.64;50.90
56074;BME280;41950;55.840;37.442;2023-03-18T02:11:00;101398.97;;;-2.52;51.02
56074;BME280;41950;55.840;37.442;2023-03-18T02:13:29;101396.13;;;-2.57;51.19
56074;BME280;41950;55.840;37.442;2023-03-18T02:16:01;101402.28;;;-2.53;51.20
56074;BME280;41950;55.840;37.442;2023-03-18T02:18:36;101411.06;;;-2.48;51.14
56074;BME280;41950;55.840;37.442;2023-03-18T02:24:05;101419.59;;;-2.47;51.46
56074;BME280;41950;55.840;37.442;2023-03-18T02:26:56;101425.06;;;-2.41;51.09
56074;BME280;41950;55.840;37.442;2023-03-18T02:29:25;101429.19;;;-2.43;51.24
56074;BME280;41950;55.840;37.442;2023-03-18T02:31:53;101408.16;;;-2.54;51.58
56074;BME280;41950;55.840;37.442;2023-03-18T02:34:22;101419.09;;;-2.55;51.74
56074;BME280;41950;55.840;37.442;2023-03-18T02:36:49;101425.84;;;-2.56;51.52
56074;BME280;41950;55.840;37.442;2023-03-18T02:39:16;101433.16;;;-2.47;51.69
56074;BME280;41950;55.840;37.442;2023-03-18T02:41:42;101410.13;;;-2.63;51.56
56074;BME280;41950;55.840;37.442;2023-03-18T02:44:13;101424.19;;;-2.55;51.78
56074;BME280;41950;55.840;37.442;2023-03-18T02:46:52;101444.13;;;-2.48;51.77
56074;BME280;41950;55.840;37.442;2023-03-18T02:49:22;101435.16;;;-2.56;51.82
56074;BME280;41950;55.840;37.442;2023-03-18T02:51:49;101446.28;;;-2.54;52.09
56074;BME280;41950;55.840;37.442;2023-03-18T02:54:19;101426.94;;;-2.65;52.00
56074;BME280;41950;55.840;37.442;2023-03-18T02:56:45;101437.69;;;-2.56;52.20
56074;BME280;41950;55.840;37.442;2023-03-18T02:59:13;101442.50;;;-2.61;52.25
56074;BME280;41950;55.840;37.442;2023-03-18T03:01:40;101446.88;;;-2.58;52.17
56074;BME280;41950;55.840;37.442;2023-03-18T03:04:07;101454.31;;;-2.61;52.41
56074;BME280;41950;55.840;37.442;2023-03-18T03:06:33;101462.13;;;-2.58;52.27
56074;BME280;41950;55.840;37.442;2023-03-18T03:09:00;101429.56;;;-2.77;52.22
56074;BME280;41950;55.840;37.442;2023-03-18T03:11:27;101428.59;;;-2.79;52.39
56074;BME280;41950;55.840;37.442;2023-03-18T03:13:53;101454.81;;;-2.67;52.43
56074;BME280;41950;55.840;37.442;2023-03-18T03:16:20;101432.59;;;-2.83;52.81
56074;BME280;41950;55.840;37.442;2023-03-18T03:18:46;101464.00;;;-2.69;52.75
56074;BME280;41950;55.840;37.442;2023-03-18T03:21:13;101463.03;;;-2.71;52.68
56074;BME280;41950;55.840;37.442;2023-03-18T03:23:40;101452.16;;;-2.82;52.70
56074;BME280;41950;55.840;37.442;2023-03-18T03:26:06;101460.75;;;-2.80;52.81
56074;BME280;41950;55.840;37.442;2023-03-18T03:28:32;101471.09;;;-2.76;53.03
56074;BME280;41950;55.840;37.442;2023-03-18T03:30:59;101434.19;;;-2.98;53.20
56074;BME280;41950;55.840;37.442;2023-03-18T03:33:26;101472.66;;;-2.78;53.41
56074;BME280;41950;55.840;37.442;2023-03-18T03:35:53;101475.13;;;-2.80;53.32
56074;BME280;41950;55.840;37.442;2023-03-18T03:38:19;101470.03;;;-2.80;53.48
56074;BME280;41950;55.840;37.442;2023-03-18T03:40:45;101471.88;;;-2.77;53.30
56074;BME280;41950;55.840;37.442;2023-03-18T03:43:13;101476.28;;;-2.75;53.34
56074;BME280;41950;55.840;37.442;2023-03-18T03:45:39;101465.84;;;-2.80;53.24
56074;BME280;41950;55.840;37.442;2023-03-18T03:48:07;101483.03;;;-2.75;53.18
56074;BME280;41950;55.840;37.442;2023-03-18T03:50:34;101453.91;;;-2.94;53.34
56074;BME280;41950;55.840;37.442;2023-03-18T03:53:00;101482.16;;;-2.76;53.12
56074;BME280;41950;55.840;37.442;2023-03-18T03:55:28;101468.28;;;-2.81;53.33
56074;BME280;41950;55.840;37.442;2023-03-18T03:57:54;101482.06;;;-2.77;53.40
56074;BME280;41950;55.840;37.442;2023-03-18T04:00:21;101481.38;;;-2.75;53.47
56074;BME280;41950;55.840;37.442;2023-03-18T04:02:49;101478.53;;;-2.80;53.37
56074;BME280;41950;55.840;37.442;2023-03-18T04:05:16;101468.19;;;-2.83;53.33
56074;BME280;41950;55.840;37.442;2023-03-18T04:07:44;101486.88;;;-2.69;53.45
56074;BME280;41950;55.840;37.442;2023-03-18T04:10:11;101473.75;;;-2.75;53.25
56074;BME280;41950;55.840;37.442;2023-03-18T04:12:38;101470.41;;;-2.74;53.30
56074;BME280;41950;55.840;37.442;2023-03-18T04:15:05;101489.03;;;-2.62;53.35
56074;BME280;41950;55.840;37.442;2023-03-18T04:17:33;101484.81;;;-2.61;53.31
56074;BME280;41950;55.840;37.442;2023-03-18T04:19:59;101478.75;;;-2.63;53.07
56074;BME280;41950;55.840;37.442;2023-03-18T04:22:25;101466.84;;;-2.64;53.17
56074;BME280;41950;55.840;37.442;2023-03-18T04:24:51;101461.66;;;-2.66;53.11
56074;BME280;41950;55.840;37.442;2023-03-18T04:27:16;101475.63;;;-2.59;53.18
56074;BME280;41950;55.840;37.442;2023-03-18T04:29:43;101480.22;;;-2.54;53.38
56074;BME280;41950;55.840;37.442;2023-03-18T04:32:10;101451.59;;;-2.64;52.97
56074;BME280;41950;55.840;37.442;2023-03-18T04:34:36;101478.75;;;-2.50;53.12
56074;BME280;41950;55.840;37.442;2023-03-18T04:37:05;101504.28;;;-2.35;53.15
56074;BME280;41950;55.840;37.442;2023-03-18T04:39:33;101475.75;;;-2.44;53.18
56074;BME280;41950;55.840;37.442;2023-03-18T04:42:00;101503.00;;;-2.29;53.20
56074;BME280;41950;55.840;37.442;2023-03-18T04:44:26;101493.09;;;-2.24;53.25
56074;BME280;41950;55.840;37.442;2023-03-18T04:46:52;101501.63;;;-2.24;53.30
56074;BME280;41950;55.840;37.442;2023-03-18T04:49:19;101473.38;;;-2.41;53.41
56074;BME280;41950;55.840;37.442;2023-03-18T04:51:45;101485.38;;;-2.26;53.44
56074;BME280;41950;55.840;37.442;2023-03-18T04:54:11;101501.34;;;-2.15;53.58
56074;BME280;41950;55.840;37.442;2023-03-18T04:56:37;101497.91;;;-2.15;53.40
56074;BME280;41950;55.840;37.442;2023-03-18T04:59:04;101511.38;;;-2.03;53.59
56074;BME280;41950;55.840;37.442;2023-03-18T05:01:30;101521.06;;;-1.98;53.32
56074;BME280;41950;55.840;37.442;2023-03-18T05:03:57;101522.44;;;-1.90;52.98
56074;BME280;41950;55.840;37.442;2023-03-18T05:06:25;101515.69;;;-1.89;52.70
56074;BME280;41950;55.840;37.442;2023-03-18T05:08:51;101520.16;;;-1.85;52.55
56074;BME280;41950;55.840;37.442;2023-03-18T05:11:18;101523.78;;;-1.81;52.88
56074;BME280;41950;55.840;37.442;2023-03-18T05:13:44;101516.31;;;-1.78;52.69
56074;BME280;41950;55.840;37.442;2023-03-18T05:16:10;101529.00;;;-1.65;52.66
56074;BME280;41950;55.840;37.442;2023-03-18T05:18:37;101524.69;;;-1.66;52.48
56074;BME280;41950;55.840;37.442;2023-03-18T05:21:03;101515.00;;;-1.59;52.26
56074;BME280;41950;55.840;37.442;2023-03-18T05:23:30;101529.06;;;-1.50;52.06
56074;BME280;41950;55.840;37.442;2023-03-18T05:25:57;101516.94;;;-1.54;51.88
56074;BME280;41950;55.840;37.442;2023-03-18T05:28:23;101508.34;;;-1.57;51.87
56074;BME280;41950;55.840;37.442;2023-03-18T05:30:49;101501.75;;;-1.53;51.46
56074;BME280;41950;55.840;37.442;2023-03-18T05:33:15;101532.75;;;-1.17;51.33
56074;BME280;41950;55.840;37.442;2023-03-18T05:35:41;101514.91;;;-1.17;50.87
56074;BME280;41950;55.840;37.442;2023-03-18T05:38:07;101507.34;;;-1.16;50.54
56074;BME280;41950;55.840;37.442;2023-03-18T05:40:33;101523.66;;;-0.99;50.76
56074;BME280;41950;55.840;37.442;2023-03-18T05:43:05;101530.75;;;-0.94;50.68
56074;BME280;41950;55.840;37.442;2023-03-18T05:45:32;101542.28;;;-0.85;50.58
56074;BME280;41950;55.840;37.442;2023-03-18T05:47:58;101545.91;;;-0.82;50.59
56074;BME280;41950;55.840;37.442;2023-03-18T05:50:32;101539.16;;;-0.81;50.04
56074;BME280;41950;55.840;37.442;2023-03-18T05:53:03;101548.56;;;-0.80;50.15
56074;BME280;41950;55.840;37.442;2023-03-18T05:55:30;101536.16;;;-0.74;50.23
56074;BME280;41950;55.840;37.442;2023-03-18T05:57:57;101531.38;;;-0.83;49.92
56074;BME280;41950;55.840;37.442;2023-03-18T06:00:24;101558.56;;;-0.69;49.34
56074;BME280;41950;55.840;37.442;2023-03-18T06:02:50;101546.88;;;-0.65;49.51
56074;BME280;41950;55.840;37.442;2023-03-18T06:05:22;101545.81;;;-0.54;49.55
56074;BME280;41950;55.840;37.442;2023-03-18T06:07:49;101544.59;;;-0.46;49.34
56074;BME280;41950;55.840;37.442;2023-03-18T06:10:19;101554.50;;;-0.36;49.27
56074;BME280;41950;55.840;37.442;2023-03-18T06:12:48;101550.53;;;-0.31;48.70
56074;BME280;41950;55.840;37.442;2023-03-18T06:15:15;101554.84;;;-0.29;48.47
56074;BME280;41950;55.840;37.442;2023-03-18T06:17:45;101539.28;;;-0.34;48.53
56074;BME280;41950;55.840;37.442;2023-03-18T06:20:15;101556.59;;;-0.14;48.38
56074;BME280;41950;55.840;37.442;2023-03-18T06:22:45;101534.97;;;-0.20;48.55
56074;BME280;41950;55.840;37.442;2023-03-18T06:25:17;101554.44;;;-0.06;47.78
56074;BME280;41950;55.840;37.442;2023-03-18T06:27:45;101525.72;;;-0.18;47.57
56074;BME280;41950;55.840;37.442;2023-03-18T06:30:13;101552.84;;;0.11;47.76
56074;BME280;41950;55.840;37.442;2023-03-18T06:32:41;101559.31;;;0.20;47.55
56074;BME280;41950;55.840;37.442;2023-03-18T06:35:07;101562.38;;;0.29;47.58
56074;BME280;41950;55.840;37.442;2023-03-18T06:37:35;101559.53;;;0.40;47.31
56074;BME280;41950;55.840;37.442;2023-03-18T06:40:01;101559.03;;;0.47;46.76
56074;BME280;41950;55.840;37.442;2023-03-18T06:42:27;101564.47;;;0.53;46.60
56074;BME280;41950;55.840;37.442;2023-03-18T06:44:55;101553.44;;;0.54;46.35
56074;BME280;41950;55.840;37.442;2023-03-18T06:47:21;101548.53;;;0.57;46.40
56074;BME280;41950;55.840;37.442;2023-03-18T06:49:48;101569.44;;;0.66;46.02
56074;BME280;41950;55.840;37.442;2023-03-18T06:52:16;101561.13;;;0.70;45.96
56074;BME280;41950;55.840;37.442;2023-03-18T06:54:42;101562.97;;;0.73;45.90
56074;BME280;41950;55.840;37.442;2023-03-18T06:57:15;101571.38;;;0.86;45.75
56074;BME280;41950;55.840;37.442;2023-03-18T06:59:41;101552.59;;;0.86;45.66
56074;BME280;41950;55.840;37.442;2023-03-18T07:02:09;101574.84;;;1.05;45.50
56074;BME280;41950;55.840;37.442;2023-03-18T07:04:35;101569.19;;;1.10;45.39
56074;BME280;41950;55.840;37.442;2023-03-18T07:07:00;101568.94;;;1.22;44.65
56074;BME280;41950;55.840;37.442;2023-03-18T07:09:27;101565.56;;;1.23;44.09
56074;BME280;41950;55.840;37.442;2023-03-18T07:11:53;101554.25;;;1.18;44.62
56074;BME280;41950;55.840;37.442;2023-03-18T07:14:21;101539.03;;;1.21;43.94
56074;BME280;41950;55.840;37.442;2023-03-18T07:16:47;101559.69;;;1.42;43.95
56074;BME280;41950;55.840;37.442;2023-03-18T07:19:13;101549.25;;;1.37;43.26
56074;BME280;41950;55.840;37.442;2023-03-18T07:21:39;101561.97;;;1.53;42.25
56074;BME280;41950;55.840;37.442;2023-03-18T07:24:07;101562.84;;;1.54;41.61
56074;BME280;41950;55.840;37.442;2023-03-18T07:26:33;101562.28;;;1.60;41.29
56074;BME280;41950;55.840;37.442;2023-03-18T07:28:59;101573.94;;;1.71;40.67
56074;BME280;41950;55.840;37.442;2023-03-18T07:31:26;101548.13;;;1.66;40.25
56074;BME280;41950;55.840;37.442;2023-03-18T07:33:52;101567.41;;;1.77;39.96
56074;BME280;41950;55.840;37.442;2023-03-18T07:36:18;101556.16;;;1.74;40.16
56074;BME280;41950;55.840;37.442;2023-03-18T07:38:45;101560.75;;;1.81;40.18
56074;BME280;41950;55.840;37.442;2023-03-18T07:41:10;101539.47;;;1.82;40.29
56074;BME280;41950;55.840;37.442;2023-03-18T07:43:36;101571.75;;;1.96;40.13
56074;BME280;41950;55.840;37.442;2023-03-18T07:46:05;101560.56;;;1.94;39.81
56074;BME280;41950;55.840;37.442;2023-03-18T07:48:31;101565.34;;;2.06;39.34
56074;BME280;41950;55.840;37.442;2023-03-18T07:51:00;101567.47;;;2.14;38.58
56074;BME280;41950;55.840;37.442;2023-03-18T07:53:27;101528.56;;;2.04;38.22
56074;BME280;41950;55.840;37.442;2023-03-18T07:55:53;101561.03;;;2.23;38.26
56074;BME280;41950;55.840;37.442;2023-03-18T07:58:19;101561.03;;;2.23;38.25
56074;BME280;41950;55.840;37.442;2023-03-18T08:00:45;101539.28;;;2.14;38.43
56074;BME280;41950;55.840;37.442;2023-03-18T08:03:12;101529.25;;;2.19;38.18
56074;BME280;41950;55.840;37.442;2023-03-18T08:05:38;101563.63;;;2.42;38.11
56074;BME280;41950;55.840;37.442;2023-03-18T08:08:05;101555.78;;;2.39;36.49
56074;BME280;41950;55.840;37.442;2023-03-18T08:10:32;101556.81;;;2.42;37.30
56074;BME280;41950;55.840;37.442;2023-03-18T08:12:58;101543.66;;;2.35;38.00
56074;BME280;41950;55.840;37.442;2023-03-18T08:15:24;101570.13;;;2.53;37.98
56074;BME280;41950;55.840;37.442;2023-03-18T08:17:50;101560.28;;;2.62;37.48
56074;BME280;41950;55.840;37.442;2023-03-18T08:20:18;101544.63;;;2.56;38.34
56074;BME280;41950;55.840;37.442;2023-03-18T08:22:44;101530.06;;;2.55;37.81
56074;BME280;41950;55.840;37.442;2023-03-18T08:25:10;101553.78;;;2.70;35.47
56074;BME280;41950;55.840;37.442;2023-03-18T08:27:37;101550.09;;;2.64;35.06
56074;BME280;41950;55.840;37.442;2023-03-18T08:30:03;101540.38;;;2.57;34.55
56074;BME280;41950;55.840;37.442;2023-03-18T08:32:29;101548.47;;;2.66;34.85
56074;BME280;41950;55.840;37.442;2023-03-18T08:34:55;101555.84;;;2.77;34.96
56074;BME280;41950;55.840;37.442;2023-03-18T08:37:21;101560.75;;;2.92;35.23
56074;BME280;41950;55.840;37.442;2023-03-18T08:39:48;101549.88;;;2.98;35.09
56074;BME280;41950;55.840;37.442;2023-03-18T08:42:29;101523.28;;;2.96;32.96
56074;BME280;41950;55.840;37.442;2023-03-18T08:44:55;101553.34;;;3.19;32.93
56074;BME280;41950;55.840;37.442;2023-03-18T08:47:26;101544.84;;;3.20;32.25
56074;BME280;41950;55.840;37.442;2023-03-18T08:49:53;101532.53;;;3.12;32.46
56074;BME280;41950;55.840;37.442;2023-03-18T08:52:21;101550.69;;;3.37;32.79
56074;BME280;41950;55.840;37.442;2023-03-18T08:54:48;101547.38;;;3.39;32.65
56074;BME280;41950;55.840;37.442;2023-03-18T08:57:14;101543.94;;;3.39;32.48
56074;BME280;41950;55.840;37.442;2023-03-18T08:59:40;101543.44;;;3.48;32.98
56074;BME280;41950;55.840;37.442;2023-03-18T09:02:13;101542.38;;;3.42;31.95
56074;BME280;41950;55.840;37.442;2023-03-18T09:04:55;101488.84;;;3.10;32.15
56074;BME280;41950;55.840;37.442;2023-03-18T09:07:23;101484.09;;;3.19;32.71
56074;BME280;41950;55.840;37.442;2023-03-18T09:09:49;101534.34;;;3.56;31.22
56074;BME280;41950;55.840;37.442;2023-03-18T09:12:18;101532.06;;;3.62;32.55
56074;BME280;41950;55.840;37.442;2023-03-18T09:14:44;101524.34;;;3.62;32.30
56074;BME280;41950;55.840;37.442;2023-03-18T09:17:20;101507.31;;;3.64;32.15
56074;BME280;41950;55.840;37.442;2023-03-18T09:19:48;101524.25;;;3.81;30.91
56074;BME280;41950;55.840;37.442;2023-03-18T09:22:14;101517.75;;;3.68;30.20
56074;BME280;41950;55.840;37.442;2023-03-18T09:24:41;101527.72;;;3.61;30.64
56074;BME280;41950;55.840;37.442;2023-03-18T09:27:07;101524.34;;;3.62;30.20
56074;BME280;41950;55.840;37.442;2023-03-18T09:29:32;101520.97;;;3.63;30.40
56074;BME280;41950;55.840;37.442;2023-03-18T09:31:58;101522.94;;;3.70;30.18
56074;BME280;41950;55.840;37.442;2023-03-18T09:34:27;101519.38;;;3.87;30.92
56074;BME280;41950;55.840;37.442;2023-03-18T09:36:56;101519.13;;;4.03;30.97
56074;BME280;41950;55.840;37.442;2023-03-18T09:39:23;101523.94;;;4.17;31.18
56074;BME280;41950;55.840;37.442;2023-03-18T09:45:07;101488.66;;;4.13;29.53
56074;BME280;41950;55.840;37.442;2023-03-18T09:56:15;101500.47;;;4.31;28.94
56074;BME280;41950;55.840;37.442;2023-03-18T09:58:50;101498.78;;;4.32;29.74
56074;BME280;41950;55.840;37.442;2023-03-18T10:01:23;101471.56;;;4.37;29.60
56074;BME280;41950;55.840;37.442;2023-03-18T10:06:39;101468.63;;;4.50;28.08
56074;BME280;41950;55.840;37.442;2023-03-18T10:09:19;101475.00;;;4.85;28.51
56074;BME280;41950;55.840;37.442;2023-03-18T10:11:52;101459.72;;;4.90;28.19
56074;BME280;41950;55.840;37.442;2023-03-18T10:19:30;101464.47;;;5.55;26.90
56074;BME280;41950;55.840;37.442;2023-03-18T10:38:53;101466.19;;;5.30;25.04
56074;BME280;41950;55.840;37.442;2023-03-18T10:41:20;101458.34;;;5.25;23.69
56074;BME280;41950;55.840;37.442;2023-03-18T10:43:51;101453.72;;;5.42;24.63
56074;BME280;41950;55.840;37.442;2023-03-18T10:46:21;101444.22;;;5.68;24.34
56074;BME280;41950;55.840;37.442;2023-03-18T10:49:36;101463.63;;;6.12;24.24
56074;BME280;41950;55.840;37.442;2023-03-18T10:51:56;101455.66;;;6.33;23.66
56074;BME280;41950;55.840;37.442;2023-03-18T10:54:49;101449.78;;;6.70;23.88
56074;BME280;41950;55.840;37.442;2023-03-18T10:57:31;101411.25;;;6.76;22.86
56074;BME280;41950;55.840;37.442;2023-03-18T10:59:59;101438.38;;;6.93;21.48
56074;BME280;41950;55.840;37.442;2023-03-18T11:02:32;101443.25;;;7.16;21.98
56074;BME280;41950;55.840;37.442;2023-03-18T11:05:25;101441.78;;;7.27;22.64
56074;BME280;41950;55.840;37.442;2023-03-18T11:08:07;101418.88;;;7.40;22.74
56074;BME280;41950;55.840;37.442;2023-03-18T11:10:37;101440.88;;;8.00;22.83
56074;BME280;41950;55.840;37.442;2023-03-18T11:13:15;101422.78;;;8.00;22.38
56074;BME280;41950;55.840;37.442;2023-03-18T11:15:48;101423.13;;;8.59;21.59
56074;BME280;41950;55.840;37.442;2023-03-18T11:18:19;101424.16;;;9.18;21.95
56074;BME280;41950;55.840;37.442;2023-03-18T11:20:57;101427.41;;;9.59;21.37
56074;BME280;41950;55.840;37.442;2023-03-18T11:23:38;101422.72;;;9.96;20.51
56074;BME280;41950;55.840;37.442;2023-03-18T11:26:42;101419.38;;;10.08;19.42
56074;BME280;41950;55.840;37.442;2023-03-18T11:29:19;101425.34;;;9.99;19.92
56074;BME280;41950;55.840;37.442;2023-03-18T11:31:54;101408.88;;;9.96;19.84
56074;BME280;41950;55.840;37.442;2023-03-18T11:34:25;101412.38;;;9.99;19.74
56074;BME280;41950;55.840;37.442;2023-03-18T11:37:00;101419.50;;;10.14;20.07
56074;BME280;41950;55.840;37.442;2023-03-18T11:39:37;101413.00;;;10.49;20.20
56074;BME280;41950;55.840;37.442;2023-03-18T11:42:20;101417.59;;;10.76;18.95
56074;BME280;41950;55.840;37.442;2023-03-18T11:44:47;101410.81;;;10.94;19.76
56074;BME280;41950;55.840;37.442;2023-03-18T11:47:22;101402.16;;;10.92;18.96
56074;BME280;41950;55.840;37.442;2023-03-18T11:49:50;101414.38;;;11.02;19.09
56074;BME280;41950;55.840;37.442;2023-03-18T11:52:39;101418.09;;;11.31;19.04
56074;BME280;41950;55.840;37.442;2023-03-18T11:58:28;101407.22;;;11.95;18.92
56074;BME280;41950;55.840;37.442;2023-03-18T12:01:14;101409.94;;;12.24;18.45
56074;BME280;41950;55.840;37.442;2023-03-18T12:04:13;101407.38;;;12.33;18.54
56074;BME280;41950;55.840;37.442;2023-03-18T12:07:03;101401.34;;;12.52;19.09
56074;BME280;41950;55.840;37.442;2023-03-18T12:15:33;101389.13;;;12.27;18.40
56074;BME280;41950;55.840;37.442;2023-03-18T12:18:31;101380.50;;;12.37;18.99
56074;BME280;41950;55.840;37.442;2023-03-18T12:32:40;101373.63;;;12.95;18.28
56074;BME280;41950;55.840;37.442;2023-03-18T12:35:18;101375.34;;;13.04;18.56
56074;BME280;41950;55.840;37.442;2023-03-18T12:46:20;101351.03;;;12.64;17.51
56074;BME280;41950;55.840;37.442;2023-03-18T12:49:00;101356.19;;;12.38;17.90
56074;BME280;41950;55.840;37.442;2023-03-18T12:51:33;101352.72;;;12.39;18.79
56074;BME280;41950;55.840;37.442;2023-03-18T12:54:15;101349.09;;;11.94;18.29
56074;BME280;41950;55.840;37.442;2023-03-18T12:56:44;101352.63;;;10.70;18.95
56074;BME280;41950;55.840;37.442;2023-03-18T12:59:35;101343.03;;;9.21;21.01
56074;BME280;41950;55.840;37.442;2023-03-18T13:05:16;101346.75;;;7.92;23.08
56074;BME280;41950;55.840;37.442;2023-03-18T13:10:44;101354.22;;;7.01;23.09
56074;BME280;41950;55.840;37.442;2023-03-18T13:13:12;101351.31;;;6.86;23.54
56074;BME280;41950;55.840;37.442;2023-03-18T13:15:43;101317.44;;;6.74;24.37
56074;BME280;41950;55.840;37.442;2023-03-18T13:18:21;101344.19;;;6.77;23.52
56074;BME280;41950;55.840;37.442;2023-03-18T13:20:51;101345.34;;;6.56;23.90
56074;BME280;41950;55.840;37.442;2023-03-18T13:26:26;101337.66;;;6.24;24.02
56074;BME280;41950;55.840;37.442;2023-03-18T13:34:37;101327.97;;;7.99;22.10
56074;BME280;41950;55.840;37.442;2023-03-18T13:42:45;101312.78;;;8.64;21.53
56074;BME280;41950;55.840;37.442;2023-03-18T13:45:23;101322.53;;;8.79;21.40
56074;BME280;41950;55.840;37.442;2023-03-18T13:50:41;101289.22;;;9.03;21.39
56074;BME280;41950;55.840;37.442;2023-03-18T13:56:00;101272.66;;;7.92;22.78
56074;BME280;41950;55.840;37.442;2023-03-18T14:07:11;101298.66;;;6.12;24.75
56074;BME280;41950;55.840;37.442;2023-03-18T14:17:58;101292.38;;;5.42;25.43
56074;BME280;41950;55.840;37.442;2023-03-18T14:20:50;101223.06;;;4.91;25.09
56074;BME280;41950;55.840;37.442;2023-03-18T14:23:31;101277.06;;;5.18;25.12
56074;BME280;41950;55.840;37.442;2023-03-18T14:26:07;101278.72;;;5.16;25.09
56074;BME280;41950;55.840;37.442;2023-03-18T14:28:46;101274.03;;;5.03;25.70
56074;BME280;41950;55.840;37.442;2023-03-18T14:34:34;101291.97;;;5.00;26.69
56074;BME280;41950;55.840;37.442;2023-03-18T14:37:24;101281.09;;;4.82;26.14
56074;BME280;41950;55.840;37.442;2023-03-18T14:39:52;101290.38;;;4.77;25.70
56074;BME280;41950;55.840;37.442;2023-03-18T14:45:01;101271.56;;;4.52;26.05
56074;BME280;41950;55.840;37.442;2023-03-18T14:47:53;101282.06;;;4.58;25.98
56074;BME280;41950;55.840;37.442;2023-03-18T14:50:30;101285.44;;;4.57;26.13
56074;BME280;41950;55.840;37.442;2023-03-18T14:53:07;101286.22;;;4.55;25.79
56074;BME280;41950;55.840;37.442;2023-03-18T14:55:36;101286.91;;;4.49;25.80